createdAt,value
2023-03-20T00:01:12.608Z,17.03
2023-03-20T00:03:38.995Z,16.40
2023-03-20T00:06:06.343Z,16.40
2023-03-20T00:08:32.636Z,17.97
2023-03-20T00:10:59.494Z,17.03
2023-03-20T00:13:27.358Z,17.13
2023-03-20T00:15:54.236Z,17.63
2023-03-20T00:18:22.539Z,16.37
2023-03-20T00:20:49.690Z,19.90
2023-03-20T00:23:16.522Z,16.87
2023-03-20T00:25:44.018Z,17.70
2023-03-20T00:28:30.508Z,16.30
2023-03-20T00:30:56.744Z,16.67
2023-03-20T00:33:22.902Z,14.63
2023-03-20T00:35:49.192Z,15.77
2023-03-20T00:38:15.467Z,12.43
2023-03-20T00:40:41.581Z,14.67
2023-03-20T00:43:09.733Z,10.10
2023-03-20T00:45:36.846Z,12.67
2023-03-20T00:48:03.273Z,11.17
2023-03-20T00:50:30.706Z,13.57
2023-03-20T00:52:57.793Z,11.10
2023-03-20T00:55:26.546Z,12.97
2023-03-20T00:57:54.852Z,12.13
2023-03-20T01:00:26.466Z,10.60
2023-03-20T01:02:55.702Z,10.77
2023-03-20T01:05:22.293Z,13.73
2023-03-20T01:07:48.430Z,13.57
2023-03-20T01:10:15.027Z,16.23
2023-03-20T01:12:42.131Z,14.07
2023-03-20T01:15:19.595Z,15.53
2023-03-20T01:17:46.278Z,15.17
2023-03-20T01:20:17.094Z,15.70
2023-03-20T01:22:43.686Z,13.17
2023-03-20T01:25:10.582Z,13.40
2023-03-20T01:27:36.700Z,15.97
2023-03-20T01:30:03.446Z,15.53
2023-03-20T01:32:29.655Z,17.10
2023-03-20T01:34:56.286Z,12.97
2023-03-20T01:37:25.216Z,13.57
2023-03-20T01:39:51.386Z,16.13
2023-03-20T01:42:17.787Z,17.50
2023-03-20T01:44:44.219Z,16.97
2023-03-20T01:47:15.622Z,12.87
2023-03-20T01:50:15.688Z,20.77
2023-03-20T01:52:42.512Z,21.47
2023-03-20T01:55:08.806Z,17.87
2023-03-20T01:57:36.753Z,16.57
2023-03-20T02:00:05.653Z,15.67
2023-03-20T02:02:32.192Z,18.90
2023-03-20T02:05:01.979Z,17.13
2023-03-20T02:07:28.619Z,19.03
2023-03-20T02:09:55.725Z,19.83
2023-03-20T02:12:22.020Z,19.07
2023-03-20T02:14:48.417Z,19.90
2023-03-20T02:17:15.276Z,18.97
2023-03-20T02:19:50.314Z,17.20
2023-03-20T02:22:44.895Z,19.47
2023-03-20T02:25:36.907Z,18.03
2023-03-20T02:28:37.210Z,20.47
2023-03-20T02:31:22.579Z,17.83
2023-03-20T02:34:24.670Z,20.67
2023-03-20T02:37:16.549Z,16.87
2023-03-20T02:40:02.309Z,17.83
2023-03-20T02:42:34.062Z,17.33
2023-03-20T02:45:04.145Z,18.50
2023-03-20T02:47:34.289Z,17.17
2023-03-20T02:50:04.964Z,18.10
2023-03-20T02:52:35.671Z,20.10
2023-03-20T02:55:11.279Z,17.87
2023-03-20T02:57:43.176Z,20.40
2023-03-20T03:00:13.586Z,18.13
2023-03-20T03:02:42.688Z,17.37
2023-03-20T03:05:12.124Z,21.37
2023-03-20T03:07:39.205Z,20.27
2023-03-20T03:10:08.241Z,20.90
2023-03-20T03:12:37.316Z,17.87
2023-03-20T03:15:07.068Z,22.73
2023-03-20T03:17:34.921Z,18.40
2023-03-20T03:20:05.080Z,18.13
2023-03-20T03:22:33.560Z,18.57
2023-03-20T03:25:00.323Z,20.73
2023-03-20T03:27:29.129Z,21.60
2023-03-20T03:29:57.544Z,22.30
2023-03-20T03:32:30.298Z,20.57
2023-03-20T03:34:56.714Z,19.60
2023-03-20T03:37:31.329Z,22.50
2023-03-20T03:40:04.926Z,21.37
2023-03-20T03:42:33.224Z,25.77
2023-03-20T03:45:02.426Z,22.67
2023-03-20T03:47:31.282Z,21.50
2023-03-20T03:50:00.950Z,22.80
2023-03-20T03:52:28.281Z,20.33
2023-03-20T03:54:57.706Z,22.90
2023-03-20T03:57:31.449Z,24.73
2023-03-20T03:59:58.277Z,21.37
2023-03-20T04:02:24.649Z,22.60
2023-03-20T04:04:52.600Z,21.07
2023-03-20T04:07:18.990Z,19.83
2023-03-20T04:09:45.210Z,22.60
2023-03-20T04:12:42.084Z,23.63
2023-03-20T04:15:09.957Z,21.37
2023-03-20T04:17:36.306Z,25.33
2023-03-20T04:20:03.875Z,20.93
2023-03-20T04:22:30.405Z,22.57
2023-03-20T04:24:57.662Z,19.90
2023-03-20T04:27:23.783Z,21.00
2023-03-20T04:29:50.110Z,23.77
2023-03-20T04:32:16.878Z,19.50
2023-03-20T04:34:43.121Z,20.10
2023-03-20T04:37:09.370Z,24.13
2023-03-20T04:39:36.655Z,24.23
2023-03-20T04:42:02.935Z,24.37
2023-03-20T04:44:29.177Z,23.93
2023-03-20T04:46:55.678Z,21.73
2023-03-20T04:49:22.495Z,23.23
2023-03-20T04:51:49.004Z,23.83
2023-03-20T04:54:15.526Z,22.17
2023-03-20T04:56:41.670Z,20.50
2023-03-20T04:59:07.971Z,20.87
2023-03-20T05:01:34.439Z,18.23
2023-03-20T05:04:00.790Z,18.33
2023-03-20T05:06:27.791Z,20.67
2023-03-20T05:08:53.971Z,19.97
2023-03-20T05:11:20.233Z,21.03
2023-03-20T05:13:46.793Z,20.80
2023-03-20T05:16:13.023Z,18.50
2023-03-20T05:18:39.241Z,15.57
2023-03-20T05:21:06.526Z,22.73
2023-03-20T05:23:33.251Z,25.07
2023-03-20T05:25:59.724Z,16.37
2023-03-20T05:28:26.407Z,17.43
2023-03-20T05:30:52.831Z,15.30
2023-03-20T05:33:19.292Z,17.77
2023-03-20T05:35:45.794Z,20.63
2023-03-20T05:38:12.225Z,18.60
2023-03-20T05:40:40.241Z,23.27
2023-03-20T05:43:06.348Z,20.43
2023-03-20T05:45:32.499Z,17.53
2023-03-20T05:47:58.868Z,17.90
2023-03-20T05:50:25.038Z,23.83
2023-03-20T05:52:51.222Z,25.17
2023-03-20T05:55:17.495Z,24.03
2023-03-20T05:57:44.376Z,24.00
2023-03-20T06:00:11.504Z,25.50
2023-03-20T06:02:37.755Z,25.03
2023-03-20T06:05:04.262Z,27.53
2023-03-20T06:07:30.470Z,29.73
2023-03-20T06:09:56.584Z,25.97
2023-03-20T06:12:22.808Z,24.97
2023-03-20T06:14:49.805Z,27.57
2023-03-20T06:17:15.971Z,22.80
2023-03-20T06:19:42.366Z,21.97
2023-03-20T06:22:08.549Z,32.33
2023-03-20T06:24:35.231Z,22.67
2023-03-20T06:27:01.665Z,26.13
2023-03-20T06:29:28.171Z,23.57
2023-03-20T06:31:55.285Z,27.27
2023-03-20T06:34:21.481Z,25.03
2023-03-20T06:36:47.798Z,27.07
2023-03-20T06:39:14.020Z,27.40
2023-03-20T06:41:40.274Z,23.60
2023-03-20T06:44:06.652Z,19.33
2023-03-20T06:46:32.843Z,25.63
2023-03-20T06:49:00.581Z,24.07
2023-03-20T06:51:26.756Z,31.40
2023-03-20T06:53:52.870Z,28.93
2023-03-20T06:56:19.100Z,27.60
2023-03-20T06:58:45.595Z,30.13
2023-03-20T07:01:13.489Z,27.53
2023-03-20T07:03:40.576Z,22.57
2023-03-20T07:06:07.905Z,24.33
2023-03-20T07:08:35.248Z,26.67
2023-03-20T07:11:01.656Z,24.47
2023-03-20T07:13:27.898Z,25.57
2023-03-20T07:16:03.754Z,23.53
2023-03-20T07:18:30.439Z,22.83
2023-03-20T07:20:59.377Z,21.47
2023-03-20T07:23:26.345Z,25.57
2023-03-20T07:25:52.550Z,27.30
2023-03-20T07:28:18.699Z,21.07
2023-03-20T07:30:44.858Z,25.77
2023-03-20T07:33:11.030Z,24.27
2023-03-20T07:35:38.818Z,22.30
2023-03-20T07:38:05.626Z,26.70
2023-03-20T07:40:32.405Z,18.73
2023-03-20T07:42:58.669Z,20.73
2023-03-20T07:45:24.956Z,18.37
2023-03-20T07:47:51.224Z,18.47
2023-03-20T07:50:17.822Z,17.60
2023-03-20T07:52:46.651Z,19.03
2023-03-20T07:55:13.105Z,21.60
2023-03-20T07:57:39.907Z,19.97
2023-03-20T08:00:08.072Z,12.40
2023-03-20T08:02:34.225Z,14.43
2023-03-20T08:05:00.344Z,15.90
2023-03-20T08:07:28.793Z,14.43
2023-03-20T08:09:55.221Z,17.60
2023-03-20T08:12:21.510Z,13.80
2023-03-20T08:14:48.276Z,15.13
2023-03-20T08:17:17.083Z,13.70
2023-03-20T08:19:45.081Z,14.10
2023-03-20T08:22:11.271Z,13.77
2023-03-20T08:24:37.596Z,13.67
2023-03-20T08:27:03.862Z,17.73
2023-03-20T08:29:30.134Z,15.37
2023-03-20T08:31:57.183Z,17.27
2023-03-20T08:34:24.209Z,13.50
2023-03-20T08:36:51.660Z,13.17
2023-03-20T08:39:18.081Z,15.30
2023-03-20T08:41:45.002Z,13.70
2023-03-20T08:44:11.260Z,12.00
2023-03-20T08:46:38.605Z,12.40
2023-03-20T08:49:05.398Z,11.27
2023-03-20T08:51:31.537Z,11.30
2023-03-20T08:53:57.648Z,10.10
2023-03-20T08:56:23.777Z,11.17
2023-03-20T08:58:54.788Z,17.33
2023-03-20T09:01:21.544Z,11.60
2023-03-20T09:03:47.722Z,17.10
2023-03-20T09:06:14.940Z,12.80
2023-03-20T09:08:41.075Z,9.47
2023-03-20T09:11:07.421Z,9.63
2023-03-20T09:13:33.695Z,10.07
2023-03-20T09:16:00.081Z,11.50
2023-03-20T09:18:26.342Z,11.60
2023-03-20T09:20:52.602Z,9.10
2023-03-20T09:23:19.978Z,12.87
2023-03-20T09:25:46.690Z,8.33
2023-03-20T09:28:13.114Z,7.57
2023-03-20T09:30:39.837Z,10.37
2023-03-20T09:33:06.454Z,9.80
2023-03-20T09:35:32.729Z,16.90
2023-03-20T09:37:58.904Z,9.93
2023-03-20T09:40:27.378Z,12.00
2023-03-20T09:42:59.507Z,9.37
2023-03-20T09:45:37.143Z,9.70
2023-03-20T09:48:05.803Z,11.17
2023-03-20T09:50:35.965Z,12.17
2023-03-20T09:53:06.339Z,8.77
2023-03-20T09:55:36.182Z,9.93
2023-03-20T09:58:07.671Z,12.43
2023-03-20T10:00:36.002Z,9.23
2023-03-20T10:03:04.653Z,8.53
2023-03-20T10:05:33.723Z,5.77
2023-03-20T10:08:02.232Z,7.13
2023-03-20T10:10:36.034Z,7.33
2023-03-20T10:13:12.536Z,9.57
2023-03-20T10:15:45.243Z,8.13
2023-03-20T10:18:17.943Z,8.20
2023-03-20T10:20:50.939Z,8.00
2023-03-20T10:23:26.324Z,6.50
2023-03-20T10:25:56.679Z,9.53
2023-03-20T10:28:27.796Z,7.60
2023-03-20T10:31:03.630Z,4.53
2023-03-20T10:33:38.556Z,7.20
2023-03-20T10:36:14.591Z,6.03
2023-03-20T10:38:43.362Z,4.37
2023-03-20T10:41:13.397Z,5.90
2023-03-20T10:43:43.330Z,3.30
2023-03-20T10:46:12.568Z,7.33
2023-03-20T10:48:42.199Z,8.77
2023-03-20T10:51:13.866Z,11.57
2023-03-20T10:53:43.704Z,4.70
2023-03-20T10:56:16.892Z,7.60
2023-03-20T10:58:44.778Z,9.60
2023-03-20T11:01:11.101Z,5.13
2023-03-20T11:03:39.097Z,11.70
2023-03-20T11:06:11.816Z,8.90
2023-03-20T11:08:40.411Z,11.77
2023-03-20T11:11:06.657Z,11.17
2023-03-20T11:13:34.987Z,9.73
2023-03-20T11:16:11.102Z,12.23
2023-03-20T11:18:38.028Z,8.70
2023-03-20T11:21:04.617Z,8.97
2023-03-20T11:23:33.131Z,7.73
2023-03-20T11:26:00.757Z,6.13
2023-03-20T11:28:31.642Z,8.83
2023-03-20T11:31:04.749Z,8.13
2023-03-20T11:33:32.175Z,9.00
2023-03-20T11:35:59.336Z,16.70
2023-03-20T11:38:25.659Z,6.33
2023-03-20T11:40:52.857Z,9.57
2023-03-20T11:43:21.254Z,10.50
2023-03-20T11:45:49.164Z,8.07
2023-03-20T11:48:19.147Z,6.73
2023-03-20T11:50:48.373Z,9.50
2023-03-20T11:53:21.756Z,12.83
2023-03-20T11:56:05.335Z,15.40
2023-03-20T11:58:31.693Z,7.53
2023-03-20T12:00:58.157Z,6.43
2023-03-20T12:03:41.277Z,6.20
2023-03-20T12:06:13.720Z,4.87
2023-03-20T12:08:41.266Z,9.37
2023-03-20T12:11:18.964Z,11.90
2023-03-20T12:13:46.960Z,9.67
2023-03-20T12:16:16.194Z,9.53
2023-03-20T12:18:45.084Z,6.30
2023-03-20T12:21:14.895Z,9.50
2023-03-20T12:23:43.516Z,5.20
2023-03-20T12:26:12.221Z,13.13
2023-03-20T12:28:41.129Z,7.87
2023-03-20T12:31:17.173Z,9.97
2023-03-20T12:33:47.211Z,10.10
2023-03-20T12:36:15.800Z,4.23
2023-03-20T12:38:42.507Z,12.87
2023-03-20T12:41:12.031Z,7.00
2023-03-20T12:43:45.750Z,5.27
2023-03-20T12:46:23.320Z,4.67
2023-03-20T12:48:55.877Z,6.37
2023-03-20T12:51:29.162Z,10.33
2023-03-20T12:54:07.136Z,5.83
2023-03-20T12:56:49.103Z,7.87
2023-03-20T12:59:21.822Z,6.10
2023-03-20T13:01:52.280Z,5.43
2023-03-20T13:04:27.056Z,6.83
2023-03-20T13:06:54.433Z,9.60
2023-03-20T13:09:48.438Z,7.03
2023-03-20T13:12:22.364Z,6.03
2023-03-20T13:14:52.417Z,7.97
2023-03-20T13:17:23.915Z,4.97
2023-03-20T13:19:57.393Z,11.30
2023-03-20T13:22:31.329Z,8.07
2023-03-20T13:25:02.635Z,8.07
2023-03-20T13:27:35.941Z,9.87
2023-03-20T13:30:07.334Z,15.13
2023-03-20T13:32:46.681Z,8.00
2023-03-20T13:35:23.525Z,8.07
2023-03-20T13:37:51.853Z,6.43
2023-03-20T13:40:21.092Z,11.53
2023-03-20T13:42:51.609Z,4.77
2023-03-20T13:45:24.980Z,10.00
2023-03-20T13:47:52.573Z,8.83
2023-03-20T13:50:35.921Z,8.33
2023-03-20T13:53:11.717Z,8.03
2023-03-20T13:55:46.232Z,9.97
2023-03-20T13:58:27.703Z,13.00
2023-03-20T14:00:58.021Z,11.03
2023-03-20T14:03:25.320Z,11.20
2023-03-20T14:05:52.092Z,10.00
2023-03-20T14:08:24.118Z,7.43
2023-03-20T14:10:55.251Z,9.67
2023-03-20T14:13:21.854Z,7.60
2023-03-20T14:15:53.660Z,9.10
2023-03-20T14:18:22.414Z,13.77
2023-03-20T14:20:55.326Z,7.70
2023-03-20T14:23:34.766Z,7.00
2023-03-20T14:26:04.894Z,6.53
2023-03-20T14:28:43.776Z,9.10
2023-03-20T14:31:22.433Z,10.00
2023-03-20T14:33:57.993Z,9.80
2023-03-20T14:36:28.377Z,13.17
2023-03-20T14:39:14.689Z,19.57
2023-03-20T14:41:55.080Z,9.90
2023-03-20T14:44:26.560Z,11.67
2023-03-20T14:46:58.497Z,10.87
2023-03-20T14:49:36.085Z,13.47
2023-03-20T14:52:15.013Z,10.53
2023-03-20T14:54:41.457Z,15.23
2023-03-20T14:57:09.348Z,9.83
2023-03-20T14:59:35.544Z,14.20
2023-03-20T15:02:02.357Z,12.17
2023-03-20T15:04:31.955Z,12.27
2023-03-20T15:06:59.707Z,17.03
2023-03-20T15:09:28.979Z,10.63
2023-03-20T15:12:03.179Z,13.10
2023-03-20T15:14:33.043Z,10.83
2023-03-20T15:17:00.338Z,9.43
2023-03-20T15:19:27.039Z,11.20
2023-03-20T15:21:53.932Z,18.80
2023-03-20T15:24:21.143Z,8.73
2023-03-20T15:26:51.460Z,15.70
2023-03-20T15:29:18.324Z,13.47
2023-03-20T15:31:44.946Z,8.50
2023-03-20T15:34:15.450Z,11.33
2023-03-20T15:36:42.690Z,10.80
2023-03-20T15:39:14.293Z,13.33
2023-03-20T15:41:44.865Z,10.60
2023-03-20T15:44:17.128Z,16.60
2023-03-20T15:46:51.072Z,8.20
2023-03-20T15:49:17.299Z,13.80
2023-03-20T15:51:43.589Z,11.73
2023-03-20T15:54:11.314Z,10.20
2023-03-20T15:56:42.363Z,10.03
2023-03-20T15:59:10.164Z,9.53
2023-03-20T16:01:37.028Z,11.10
2023-03-20T16:04:03.402Z,6.27
2023-03-20T16:06:29.552Z,10.73
2023-03-20T16:08:57.517Z,8.13
2023-03-20T16:11:23.692Z,10.37
2023-03-20T16:13:51.264Z,10.03
2023-03-20T16:16:19.447Z,12.77
2023-03-20T16:18:48.572Z,15.13
2023-03-20T16:21:18.670Z,17.80
2023-03-20T16:23:47.398Z,11.77
2023-03-20T16:26:16.921Z,11.80
2023-03-20T16:28:45.407Z,7.60
2023-03-20T16:31:16.512Z,13.83
2023-03-20T16:33:42.977Z,8.60
2023-03-20T16:36:15.424Z,9.63
2023-03-20T16:38:54.011Z,6.57
2023-03-20T16:41:32.772Z,10.77
2023-03-20T16:43:59.579Z,9.80
2023-03-20T16:46:27.515Z,14.63
2023-03-20T16:48:56.754Z,7.10
2023-03-20T16:51:25.067Z,11.23
2023-03-20T16:53:55.177Z,11.03
2023-03-20T16:56:24.895Z,10.43
2023-03-20T16:58:51.208Z,13.60
2023-03-20T17:01:19.334Z,12.40
2023-03-20T17:03:51.786Z,10.73
2023-03-20T17:06:37.815Z,12.27
2023-03-20T17:09:22.674Z,10.47
2023-03-20T17:11:50.512Z,10.30
2023-03-20T17:14:17.081Z,5.93
2023-03-20T17:16:43.616Z,11.43
2023-03-20T17:19:13.681Z,14.57
2023-03-20T17:21:40.557Z,23.83
2023-03-20T17:24:07.056Z,18.57
2023-03-20T17:26:33.244Z,10.33
2023-03-20T17:28:59.399Z,8.30
2023-03-20T17:31:25.586Z,10.80
2023-03-20T17:33:52.189Z,7.60
2023-03-20T17:36:21.127Z,13.67
2023-03-20T17:38:48.153Z,11.40
2023-03-20T17:41:15.338Z,11.33
2023-03-20T17:43:42.079Z,6.83
2023-03-20T17:46:11.443Z,5.33
2023-03-20T17:48:37.586Z,11.13
2023-03-20T17:51:05.642Z,11.97
2023-03-20T17:53:33.013Z,4.17
2023-03-20T17:56:00.416Z,8.47
2023-03-20T17:58:26.708Z,4.33
2023-03-20T18:00:53.940Z,11.80
2023-03-20T18:03:20.600Z,8.17
2023-03-20T18:05:49.003Z,20.13
2023-03-20T18:08:16.319Z,5.47
2023-03-20T18:10:43.442Z,8.00
2023-03-20T18:13:10.281Z,10.83
2023-03-20T18:15:39.309Z,11.43
2023-03-20T18:18:06.889Z,7.63
2023-03-20T18:20:34.974Z,12.83
2023-03-20T18:23:01.519Z,12.93
2023-03-20T18:25:28.423Z,6.87
2023-03-20T18:27:55.322Z,8.77
2023-03-20T18:30:25.737Z,6.50
2023-03-20T18:32:51.982Z,8.93
2023-03-20T18:35:18.692Z,6.93
2023-03-20T18:37:45.236Z,8.87
2023-03-20T18:40:17.457Z,8.97
2023-03-20T18:42:43.646Z,8.73
2023-03-20T18:45:11.004Z,10.03
2023-03-20T18:47:37.933Z,13.43
2023-03-20T18:50:05.354Z,10.30
2023-03-20T18:52:31.571Z,9.93
2023-03-20T18:54:57.729Z,11.93
2023-03-20T18:57:23.862Z,12.60
2023-03-20T18:59:49.990Z,4.30
2023-03-20T19:02:16.116Z,10.73
2023-03-20T19:04:42.883Z,11.53
2023-03-20T19:07:12.414Z,7.83
2023-03-20T19:09:38.588Z,5.93
2023-03-20T19:12:05.474Z,5.60
2023-03-20T19:14:31.586Z,6.23
2023-03-20T19:16:57.834Z,11.47
2023-03-20T19:19:24.097Z,8.00
2023-03-20T19:21:50.906Z,10.10
2023-03-20T19:24:20.705Z,8.83
2023-03-20T19:26:46.977Z,8.63
2023-03-20T19:29:13.206Z,10.77
2023-03-20T19:31:39.485Z,13.47
2023-03-20T19:34:06.754Z,5.33
2023-03-20T19:36:35.501Z,12.13
2023-03-20T19:39:04.686Z,14.50
2023-03-20T19:41:32.315Z,5.53
2023-03-20T19:43:59.149Z,10.00
2023-03-20T19:46:42.720Z,12.60
2023-03-20T19:49:17.744Z,11.10
2023-03-20T19:51:44.354Z,10.07
2023-03-20T19:54:11.387Z,4.13
2023-03-20T19:56:37.688Z,8.80
2023-03-20T19:59:04.997Z,12.00
2023-03-20T20:01:31.548Z,10.87
2023-03-20T20:03:58.506Z,10.00
2023-03-20T20:06:31.169Z,13.13
2023-03-20T20:08:58.091Z,10.07
2023-03-20T20:11:25.034Z,11.90
2023-03-20T20:14:05.571Z,9.20
2023-03-20T20:16:32.454Z,8.23
2023-03-20T20:18:58.764Z,13.07
2023-03-20T20:24:11.538Z,12.03
2023-03-20T20:26:41.190Z,11.93
2023-03-20T20:29:13.999Z,13.43
2023-03-20T20:31:40.191Z,5.70
2023-03-20T20:35:07.343Z,9.03
2023-03-20T20:39:38.886Z,11.27
2023-03-20T20:42:05.814Z,9.60
2023-03-20T20:44:32.004Z,12.83
2023-03-20T20:46:58.251Z,8.53
2023-03-20T20:49:24.824Z,5.87
2023-03-20T20:51:51.256Z,17.57
2023-03-20T20:54:17.396Z,9.63
2023-03-20T20:56:43.539Z,12.27
2023-03-20T20:59:10.455Z,6.67
2023-03-20T21:01:36.626Z,8.93
2023-03-20T21:04:02.882Z,13.67
2023-03-20T21:06:58.000Z,15.53
2023-03-20T21:09:18.718Z,10.53
2023-03-20T21:11:45.680Z,11.53
2023-03-20T21:14:13.867Z,13.03
2023-03-20T21:16:40.015Z,18.07
2023-03-20T21:19:06.848Z,26.13
2023-03-20T21:21:34.232Z,25.13
2023-03-20T21:24:01.041Z,18.93
2023-03-20T21:26:27.341Z,10.13
2023-03-20T21:28:53.633Z,7.73
2023-03-20T21:31:25.911Z,4.33
2023-03-20T21:33:54.901Z,8.13
2023-03-20T21:36:21.448Z,6.97
2023-03-20T21:39:06.909Z,8.00
2023-03-20T21:41:34.522Z,9.90
2023-03-20T21:44:01.520Z,9.83
2023-03-20T21:47:04.059Z,7.63
2023-03-20T22:01:09.685Z,9.57
2023-03-20T22:03:11.535Z,6.83
2023-03-20T22:06:21.088Z,7.50
2023-03-20T22:20:35.441Z,14.33
2023-03-20T22:28:33.372Z,7.30
2023-03-20T22:36:57.556Z,17.23
2023-03-20T22:39:39.326Z,5.43
2023-03-20T22:42:28.542Z,7.43
2023-03-20T22:44:59.870Z,9.70
2023-03-20T22:47:18.659Z,7.60
2023-03-20T22:49:44.884Z,4.23
2023-03-20T22:52:26.617Z,9.27
2023-03-20T22:54:58.253Z,10.40
2023-03-20T22:57:29.011Z,9.67
2023-03-20T23:00:00.803Z,12.67
2023-03-20T23:02:26.933Z,9.53
2023-03-20T23:04:54.174Z,9.83
2023-03-20T23:07:21.025Z,11.00
2023-03-20T23:09:47.487Z,10.70
2023-03-20T23:12:13.628Z,10.13
2023-03-20T23:14:45.702Z,9.80
2023-03-20T23:17:12.463Z,8.43
2023-03-20T23:19:47.744Z,8.47
2023-03-20T23:22:15.584Z,8.93
2023-03-20T23:24:42.360Z,8.97
2023-03-20T23:27:08.553Z,9.50
2023-03-20T23:29:34.698Z,9.67
2023-03-20T23:32:00.951Z,11.53
2023-03-20T23:34:27.101Z,8.70
2023-03-20T23:36:53.364Z,9.77
2023-03-20T23:39:19.568Z,8.57
2023-03-20T23:44:32.504Z,9.87
2023-03-20T23:46:59.752Z,11.47
2023-03-20T23:49:27.436Z,7.10
2023-03-20T23:51:53.833Z,9.43
2023-03-20T23:54:20.011Z,10.43
2023-03-20T23:56:46.962Z,10.17
2023-03-20T23:59:21.724Z,7.90
